Eatonville, Florida
Current Conditions -  °F | °C
As of 5:53 AM on Wednesday 22 Oct 2014 (Local Time) from KORL Reporting Station
Haze Haze  
Wind Chill: 71°   Ceiling: 200
Heat Index: 71°   Visibility: 5mi
Dew Point: 71°   Wind: 5mph
Humidity: 100%   Direction: 350°N
Pressure: 29.95"   Gusts: NA
Location:  28.6318°N, 81.3625°W
Report Text: KORL 220953Z 35004KT 5SM BR OVC002 22/22 A2995 RMK AO2 SLP145 T02170217
Loading
Personal Weather Stations






























Interactive Weather Map
Tropical Storm Tracking
New forecast layout! Learn more

10-Day Weather Forecast

Advertisements
Track Severe Weather on mobile